Nereus — SKTD — position and weather

sailwx.info

Track history (hours):
 
Tides and Currents Weather Stations Pressure Air Temp Water Temp Dewpoint Dewpoint Depression Visibility Wind Speed Wind Dir Waves Ship Positions

Oceanographic research ship Nereus (Sweden)

Detailed information on ship capabilities available from University of Delaware's Ocean Information Center.

Last reported at 2020-Sep-29 07:00 UTC. Time now 2020-Sep-29 07:48 UTC.
Position N 58°57' E 011°03'.

Length 15 m; draft 2 m.

Type: Dredging. MMSI: 265599930.

Date/timePositionNaut miles runAvg speedWind from/ knotsBaromVisibWave heightAir tempDewpointWater temp
2020-Sep-29 07:00N 58°57' E 011°03'5 2.3
2020-Sep-29 04:50N 58°53' E 011°09'0 0.0
2020-Sep-29 04:12N 58°53' E 011°09'0 0.0
2020-Sep-29 00:26N 58°53' E 011°09'0 0.0
2020-Sep-28 21:52N 58°53' E 011°09'0 0.0
2020-Sep-28 19:59N 58°53' E 011°09'0 0.0
2020-Sep-28 19:16N 58°53' E 011°09'0 0.0
2020-Sep-28 18:25N 58°53' E 011°09'0 0.0
2020-Sep-28 17:30N 58°53' E 011°09'0 0.0
2020-Sep-28 16:59N 58°53' E 011°09'0 0.0
2020-Sep-28 15:48N 58°53' E 011°09'1 0.5
2020-Sep-28 13:48N 58°53' E 011°07'2 0.9
2020-Sep-28 11:59N 58°54' E 011°04'3 4.4
2020-Sep-28 11:25N 58°53' E 011°09'0 0.0
2020-Sep-28 10:52N 58°53' E 011°09'0 0.0
2020-Sep-28 10:30N 58°53' E 011°09'0 0.0
2020-Sep-28 08:26N 58°53' E 011°09'0 0.0
2020-Sep-28 07:17N 58°53' E 011°09'0 0.0
2020-Sep-28 02:50N 58°53' E 011°09'0 0.0
2020-Sep-28 01:30N 58°53' E 011°09'0 0.0
2020-Sep-28 00:54N 58°53' E 011°09'0 0.0
2020-Sep-27 21:58N 58°53' E 011°09'0 0.0
2020-Sep-27 19:57N 58°53' E 011°09'0 0.0
2020-Sep-27 18:59N 58°53' E 011°09'0 0.0
2020-Sep-27 16:36N 58°53' E 011°09'0 0.0
2020-Sep-27 13:49N 58°53' E 011°09'0 0.0
2020-Sep-27 13:00N 58°53' E 011°09'0 0.0
2020-Sep-27 09:48N 58°53' E 011°09'0 0.0
2020-Sep-27 07:30N 58°53' E 011°09'0 0.0
2020-Sep-27 02:50N 58°53' E 011°09'0 0.0
2020-Sep-26 22:56N 58°53' E 011°09'0 0.0
2020-Sep-26 21:56N 58°53' E 011°09'0 0.0
2020-Sep-26 18:52N 58°53' E 011°09'0 0.0
2020-Sep-26 14:58N 58°53' E 011°09'0 0.0
2020-Sep-26 10:54N 58°53' E 011°09'0 0.0
2020-Sep-26 09:29N 58°53' E 011°09'0 0.0
2020-Sep-26 07:53N 58°53' E 011°09'0 0.0
2020-Sep-26 07:26N 58°53' E 011°09'0 0.0
2020-Sep-26 07:00N 58°53' E 011°09'0 0.0
2020-Sep-26 06:18N 58°53' E 011°09'0 0.0
2020-Sep-26 05:27N 58°53' E 011°09'0 0.0
2020-Sep-26 00:30N 58°53' E 011°09'0 0.0
2020-Sep-25 23:25N 58°53' E 011°09'0 0.0
2020-Sep-25 20:19N 58°53' E 011°09'0 0.0
2020-Sep-25 14:14N 58°53' E 011°09'0 0.0
2020-Sep-25 13:54N 58°53' E 011°09'0 0.0
2020-Sep-25 13:30N 58°53' E 011°09'2 0.4
2020-Sep-25 08:29N 58°53' E 011°05'2 1.7
2020-Sep-25 07:22N 58°53' E 011°09'0 0.0
2020-Sep-25 06:35N 58°53' E 011°09'0 0.0
2020-Sep-25 03:32N 58°53' E 011°09'0 0.0
2020-Sep-25 00:20N 58°53' E 011°09'0 0.0
2020-Sep-24 15:53N 58°53' E 011°09'0 0.0
2020-Sep-24 15:14N 58°53' E 011°09'0 0.0
2020-Sep-24 07:05N 58°53' E 011°09'0 0.0
2020-Sep-24 06:20N 58°53' E 011°09'0 0.0
2020-Sep-24 05:26N 58°53' E 011°09'0 0.0
2020-Sep-24 02:56N 58°53' E 011°09'0 0.0
2020-Sep-24 02:29N 58°53' E 011°09'0 0.0
2020-Sep-24 01:56N 58°53' E 011°09'0 0.0
2020-Sep-23 21:23N 58°53' E 011°09'0 0.0
2020-Sep-23 19:59N 58°53' E 011°09'0 0.0
2020-Sep-23 19:23N 58°53' E 011°09'0 0.0
2020-Sep-23 18:44N 58°53' E 011°09'0 0.0
2020-Sep-23 14:44N 58°53' E 011°09'0 0.0
2020-Sep-23 13:59N 58°53' E 011°09'0 0.0
2020-Sep-23 11:59N 58°53' E 011°09'0 0.0
2020-Sep-23 10:56N 58°53' E 011°09'0 0.0
2020-Sep-23 10:26N 58°53' E 011°09'0 0.0
2020-Sep-23 01:59N 58°53' E 011°09'0 0.0
2020-Sep-22 16:20N 58°53' E 011°09'0 0.0
2020-Sep-22 15:58N 58°53' E 011°09'0 0.0
2020-Sep-22 15:29N 58°53' E 011°09'0 0.0
2020-Sep-22 11:56N 58°53' E 011°09'0 0.0
2020-Sep-22 10:53N 58°53' E 011°09'0 0.0
2020-Sep-22 09:50N 58°53' E 011°09'0 0.0
2020-Sep-22 09:26N 58°53' E 011°09'0 0.0
2020-Sep-22 07:59N 58°53' E 011°09'0 0.0
2020-Sep-22 07:20N 58°53' E 011°09'0 0.0
2020-Sep-22 06:59N 58°53' E 011°09'0 0.0
2020-Sep-22 04:56N 58°53' E 011°09'0 0.0
2020-Sep-21 21:38N 58°53' E 011°09'0 0.0
2020-Sep-21 21:23N 58°53' E 011°09'0 0.0
2020-Sep-21 17:20N 58°53' E 011°09'0 0.0
2020-Sep-21 15:50N 58°53' E 011°09'0 0.0
2020-Sep-21 13:50N 58°53' E 011°09'0 0.0
2020-Sep-21 10:29N 58°53' E 011°09'0 0.0
2020-Sep-21 08:23N 58°53' E 011°09'0 0.0
2020-Sep-21 07:20N 58°53' E 011°09'0 0.0
2020-Sep-21 05:29N 58°53' E 011°09'0 0.0
2020-Sep-21 01:26N 58°53' E 011°09'0 0.0
2020-Sep-21 00:26N 58°53' E 011°09'0 0.0
2020-Sep-20 23:29N 58°53' E 011°09'0 0.0
2020-Sep-20 19:29N 58°53' E 011°09'0 0.0
2020-Sep-20 18:56N 58°53' E 011°09'0 0.0
2020-Sep-20 17:59N 58°53' E 011°09'0 0.0
2020-Sep-20 17:29N 58°53' E 011°09'0 0.0
2020-Sep-20 16:56N 58°53' E 011°09'0 0.0
2020-Sep-20 16:29N 58°53' E 011°09'0 0.0
2020-Sep-20 15:59N 58°53' E 011°09'0 0.0
2020-Sep-20 14:11N 58°53' E 011°09'0 0.0
2020-Sep-20 12:26N 58°53' E 011°09'0 0.0
2020-Sep-20 11:50N 58°53' E 011°09'0 0.0
2020-Sep-20 11:29N 58°53' E 011°09'0 0.0
2020-Sep-20 10:23N 58°53' E 011°09'0 0.0
2020-Sep-20 08:26N 58°53' E 011°09'0 0.0
2020-Sep-20 06:59N 58°53' E 011°09'0 0.0
2020-Sep-20 05:53N 58°53' E 011°09'0 0.0
2020-Sep-19 23:53N 58°53' E 011°09'0 0.0
2020-Sep-19 20:26N 58°53' E 011°09'0 0.0
2020-Sep-19 18:59N 58°53' E 011°09'0 0.0
2020-Sep-19 17:29N 58°53' E 011°09'0 0.0
2020-Sep-19 16:29N 58°53' E 011°09'0 0.0
2020-Sep-19 13:56N 58°53' E 011°09'0 0.0
2020-Sep-19 10:50N 58°53' E 011°09'0 0.0
2020-Sep-19 09:59N 58°53' E 011°09'0 0.0
2020-Sep-19 07:26N 58°53' E 011°09'  
Track history (hours):
 
Tides and Currents Weather Stations Pressure Air Temp Water Temp Dewpoint Dewpoint Depression Visibility Wind Speed Wind Dir Waves Ship Positions

Oceanographic research ship Nereus (Sweden)

Detailed information on ship capabilities available from University of Delaware's Ocean Information Center.

Last reported at 2020-Sep-29 07:00 UTC. Time now 2020-Sep-29 07:48 UTC.
Position N 58°57' E 011°03'.

Length 15 m; draft 2 m.

Type: Dredging. MMSI: 265599930.

Date/timePositionNaut miles runAvg speedWind from/ knotsBaromVisibWave heightAir tempDewpointWater temp
2020-Sep-29 07:00N 58°57' E 011°03'5 2.3
2020-Sep-29 04:50N 58°53' E 011°09'0 0.0
2020-Sep-29 04:12N 58°53' E 011°09'0 0.0
2020-Sep-29 00:26N 58°53' E 011°09'0 0.0
2020-Sep-28 21:52N 58°53' E 011°09'0 0.0
2020-Sep-28 19:59N 58°53' E 011°09'0 0.0
2020-Sep-28 19:16N 58°53' E 011°09'0 0.0
2020-Sep-28 18:25N 58°53' E 011°09'0 0.0
2020-Sep-28 17:30N 58°53' E 011°09'0 0.0
2020-Sep-28 16:59N 58°53' E 011°09'0 0.0
2020-Sep-28 15:48N 58°53' E 011°09'1 0.5
2020-Sep-28 13:48N 58°53' E 011°07'2 0.9
2020-Sep-28 11:59N 58°54' E 011°04'3 4.4
2020-Sep-28 11:25N 58°53' E 011°09'0 0.0
2020-Sep-28 10:52N 58°53' E 011°09'0 0.0
2020-Sep-28 10:30N 58°53' E 011°09'0 0.0
2020-Sep-28 08:26N 58°53' E 011°09'0 0.0
2020-Sep-28 07:17N 58°53' E 011°09'0 0.0
2020-Sep-28 02:50N 58°53' E 011°09'0 0.0
2020-Sep-28 01:30N 58°53' E 011°09'0 0.0
2020-Sep-28 00:54N 58°53' E 011°09'0 0.0
2020-Sep-27 21:58N 58°53' E 011°09'0 0.0
2020-Sep-27 19:57N 58°53' E 011°09'0 0.0
2020-Sep-27 18:59N 58°53' E 011°09'0 0.0
2020-Sep-27 16:36N 58°53' E 011°09'0 0.0
2020-Sep-27 13:49N 58°53' E 011°09'0 0.0
2020-Sep-27 13:00N 58°53' E 011°09'0 0.0
2020-Sep-27 09:48N 58°53' E 011°09'0 0.0
2020-Sep-27 07:30N 58°53' E 011°09'0 0.0
2020-Sep-27 02:50N 58°53' E 011°09'0 0.0
2020-Sep-26 22:56N 58°53' E 011°09'0 0.0
2020-Sep-26 21:56N 58°53' E 011°09'0 0.0
2020-Sep-26 18:52N 58°53' E 011°09'0 0.0
2020-Sep-26 14:58N 58°53' E 011°09'0 0.0
2020-Sep-26 10:54N 58°53' E 011°09'0 0.0
2020-Sep-26 09:29N 58°53' E 011°09'0 0.0
2020-Sep-26 07:53N 58°53' E 011°09'0 0.0
2020-Sep-26 07:26N 58°53' E 011°09'0 0.0
2020-Sep-26 07:00N 58°53' E 011°09'0 0.0
2020-Sep-26 06:18N 58°53' E 011°09'0 0.0
2020-Sep-26 05:27N 58°53' E 011°09'0 0.0
2020-Sep-26 00:30N 58°53' E 011°09'0 0.0
2020-Sep-25 23:25N 58°53' E 011°09'0 0.0
2020-Sep-25 20:19N 58°53' E 011°09'0 0.0
2020-Sep-25 14:14N 58°53' E 011°09'0 0.0
2020-Sep-25 13:54N 58°53' E 011°09'0 0.0
2020-Sep-25 13:30N 58°53' E 011°09'2 0.4
2020-Sep-25 08:29N 58°53' E 011°05'2 1.7
2020-Sep-25 07:22N 58°53' E 011°09'0 0.0
2020-Sep-25 06:35N 58°53' E 011°09'0 0.0
2020-Sep-25 03:32N 58°53' E 011°09'0 0.0
2020-Sep-25 00:20N 58°53' E 011°09'0 0.0
2020-Sep-24 15:53N 58°53' E 011°09'0 0.0
2020-Sep-24 15:14N 58°53' E 011°09'0 0.0
2020-Sep-24 07:05N 58°53' E 011°09'0 0.0
2020-Sep-24 06:20N 58°53' E 011°09'0 0.0
2020-Sep-24 05:26N 58°53' E 011°09'0 0.0
2020-Sep-24 02:56N 58°53' E 011°09'0 0.0
2020-Sep-24 02:29N 58°53' E 011°09'0 0.0
2020-Sep-24 01:56N 58°53' E 011°09'0 0.0
2020-Sep-23 21:23N 58°53' E 011°09'0 0.0
2020-Sep-23 19:59N 58°53' E 011°09'0 0.0
2020-Sep-23 19:23N 58°53' E 011°09'0 0.0
2020-Sep-23 18:44N 58°53' E 011°09'0 0.0
2020-Sep-23 14:44N 58°53' E 011°09'0 0.0
2020-Sep-23 13:59N 58°53' E 011°09'0 0.0
2020-Sep-23 11:59N 58°53' E 011°09'0 0.0
2020-Sep-23 10:56N 58°53' E 011°09'0 0.0
2020-Sep-23 10:26N 58°53' E 011°09'0 0.0
2020-Sep-23 01:59N 58°53' E 011°09'0 0.0
2020-Sep-22 16:20N 58°53' E 011°09'0 0.0
2020-Sep-22 15:58N 58°53' E 011°09'0 0.0
2020-Sep-22 15:29N 58°53' E 011°09'0 0.0
2020-Sep-22 11:56N 58°53' E 011°09'0 0.0
2020-Sep-22 10:53N 58°53' E 011°09'0 0.0
2020-Sep-22 09:50N 58°53' E 011°09'0 0.0
2020-Sep-22 09:26N 58°53' E 011°09'0 0.0
2020-Sep-22 07:59N 58°53' E 011°09'0 0.0
2020-Sep-22 07:20N 58°53' E 011°09'0 0.0
2020-Sep-22 06:59N 58°53' E 011°09'0 0.0
2020-Sep-22 04:56N 58°53' E 011°09'0 0.0
2020-Sep-21 21:38N 58°53' E 011°09'0 0.0
2020-Sep-21 21:23N 58°53' E 011°09'0 0.0
2020-Sep-21 17:20N 58°53' E 011°09'0 0.0
2020-Sep-21 15:50N 58°53' E 011°09'0 0.0
2020-Sep-21 13:50N 58°53' E 011°09'0 0.0
2020-Sep-21 10:29N 58°53' E 011°09'0 0.0
2020-Sep-21 08:23N 58°53' E 011°09'0 0.0
2020-Sep-21 07:20N 58°53' E 011°09'0 0.0
2020-Sep-21 05:29N 58°53' E 011°09'0 0.0
2020-Sep-21 01:26N 58°53' E 011°09'0 0.0
2020-Sep-21 00:26N 58°53' E 011°09'0 0.0
2020-Sep-20 23:29N 58°53' E 011°09'0 0.0
2020-Sep-20 19:29N 58°53' E 011°09'0 0.0
2020-Sep-20 18:56N 58°53' E 011°09'0 0.0
2020-Sep-20 17:59N 58°53' E 011°09'0 0.0
2020-Sep-20 17:29N 58°53' E 011°09'0 0.0
2020-Sep-20 16:56N 58°53' E 011°09'0 0.0
2020-Sep-20 16:29N 58°53' E 011°09'0 0.0
2020-Sep-20 15:59N 58°53' E 011°09'0 0.0
2020-Sep-20 14:11N 58°53' E 011°09'0 0.0
2020-Sep-20 12:26N 58°53' E 011°09'0 0.0
2020-Sep-20 11:50N 58°53' E 011°09'0 0.0
2020-Sep-20 11:29N 58°53' E 011°09'0 0.0
2020-Sep-20 10:23N 58°53' E 011°09'0 0.0
2020-Sep-20 08:26N 58°53' E 011°09'0 0.0
2020-Sep-20 06:59N 58°53' E 011°09'0 0.0
2020-Sep-20 05:53N 58°53' E 011°09'0 0.0
2020-Sep-19 23:53N 58°53' E 011°09'0 0.0
2020-Sep-19 20:26N 58°53' E 011°09'0 0.0
2020-Sep-19 18:59N 58°53' E 011°09'0 0.0
2020-Sep-19 17:29N 58°53' E 011°09'0 0.0
2020-Sep-19 16:29N 58°53' E 011°09'0 0.0
2020-Sep-19 13:56N 58°53' E 011°09'0 0.0
2020-Sep-19 10:50N 58°53' E 011°09'0 0.0
2020-Sep-19 09:59N 58°53' E 011°09'0 0.0
2020-Sep-19 07:26N 58°53' E 011°09'  

Dump ship's entire track history